Time;durP1;ratioP1;P1;durP2;ratioP2;P2;SDS_P1;SDS_P2;PMS_P1;PMS_P2;Temp;Humidity;BMP_temperature;BMP_pressure;BME280_temperature;BME280_humidity;BME280_pressure;Samples;Min_cycle;Max_cycle;Signal;HPM_P1;HPM_P2
2022/09/18 00:02:43;;;;;;;;;;;16.50;50.00;;;14.58;54.81;100119.56;12264546;19;19923;-84
2022/09/18 00:06:44;;;;;;;;;;;16.50;49.90;;;14.52;54.79;100107.78;12266792;19;19943;-84
2022/09/18 00:10:45;;;;;;;;;;;16.50;49.90;;;14.69;54.87;100121.31;12267862;19;19911;-84
2022/09/18 00:14:47;;;;;;;;;;;16.50;49.90;;;14.70;54.90;100125.63;12263227;19;19919;-84
2022/09/18 00:18:48;;;;;;;;;;;16.60;50.00;;;14.34;54.89;100069.88;12267587;19;19907;-84
2022/09/18 00:22:50;;;;;;;;;;;16.60;49.90;;;14.39;54.74;100075.56;12262480;19;19938;-84
2022/09/18 00:26:51;;;;;;;;;;;16.60;50.10;;;14.64;54.92;100119.09;12265656;19;19947;-84
2022/09/18 00:30:53;;;;;;;;;;;16.80;50.10;;;14.69;54.95;100123.94;12264639;19;19979;-84
2022/09/18 00:34:54;;;;;;;;;;;16.60;50.10;;;14.67;54.93;100121.47;12256214;19;19915;-85
2022/09/18 00:39:01;;;;;;;;;;;17.00;50.30;;;14.52;54.92;100107.78;12261559;19;19931;-85
2022/09/18 00:43:17;;;;;;;;;;;16.60;50.10;;;14.41;55.06;100089.41;12256138;19;19923;-85
2022/09/18 00:47:27;;;;;;;;;;;16.60;50.20;;;14.36;55.14;100081.06;12259096;19;19918;-85
2022/09/18 00:51:35;;;;;;;;;;;16.60;50.00;;;14.39;55.13;100091.31;12259875;19;19929;-85
2022/09/18 00:55:37;;;;;;;;;;;16.50;50.30;;;14.51;54.99;100118.41;12248190;19;19919;-85
2022/09/18 00:59:41;;;;;;;;;;;16.80;50.50;;;14.48;55.15;100103.72;12257950;19;19919;-85
2022/09/18 01:03:43;;;;;;;;;;;16.50;50.50;;;14.51;55.13;100118.41;12259104;19;20305;-85
2022/09/18 01:08:21;;;;;;;;;;;16.50;50.40;;;14.38;55.18;100105.41;12260753;19;19918;-85
2022/09/18 01:12:26;;;;;;;;;;;16.50;50.50;;;14.37;55.32;100114.25;12252985;19;19921;-85
2022/09/18 01:16:39;;;;;;;;;;;16.50;50.40;;;14.31;55.47;100115.59;12249738;19;19922;-86
2022/09/18 01:20:55;;;;;;;;;;;16.40;50.60;;;14.33;55.42;100118.09;12260166;19;20415;-85
2022/09/18 01:25:09;;;;;;;;;;;16.40;50.90;;;14.14;55.45;100092.47;12251565;19;19926;-85
2022/09/18 01:29:33;;;;;;;;;;;16.30;50.90;;;14.35;55.29;100138.00;12255832;19;20254;-85
2022/09/18 01:33:39;;;;;;;;;;;16.30;50.90;;;14.30;55.46;100134.91;12249160;19;19915;-85
2022/09/18 01:38:16;;;;;;;;;;;16.30;50.70;;;14.28;55.40;100141.25;12258776;19;19943;-85
2022/09/18 01:42:19;;;;;;;;;;;16.30;50.80;;;14.08;55.62;100106.94;12251710;19;19922;-85
2022/09/18 01:46:22;;;;;;;;;;;16.20;50.90;;;14.08;55.54;100117.44;12253846;19;20336;-85
2022/09/18 01:50:27;;;;;;;;;;;16.20;50.90;;;14.15;55.57;100131.75;12256830;19;19919;-85
2022/09/18 01:54:34;;;;;;;;;;;16.20;50.90;;;14.22;55.55;100137.34;12255332;19;19922;-85
2022/09/18 01:58:36;;;;;;;;;;;16.10;50.90;;;14.09;55.51;100115.63;12258027;19;19931;-86
2022/09/18 02:02:51;;;;;;;;;;;16.20;50.80;;;14.12;55.63;100132.00;12258352;19;20292;-85
2022/09/18 02:07:38;;;;;;;;;;;16.20;50.80;;;14.17;55.63;100161.31;12256439;19;19921;-85
2022/09/18 02:11:44;;;;;;;;;;;16.20;50.30;;;14.03;55.58;100137.97;12256683;19;19935;-86
2022/09/18 02:15:47;;;;;;;;;;;16.10;50.70;;;14.07;55.77;100149.91;12250746;19;19926;-85
2022/09/18 02:19:57;;;;;;;;;;;16.10;50.40;;;13.91;55.68;100134.53;12257080;19;19917;-85
2022/09/18 02:24:05;;;;;;;;;;;16.00;50.40;;;13.92;55.73;100132.72;12253124;19;19922;-86
2022/09/18 02:28:08;;;;;;;;;;;16.30;50.60;;;14.04;55.88;100150.16;12256252;19;19957;-86
2022/09/18 02:32:11;;;;;;;;;;;16.00;50.60;;;13.97;55.77;100140.25;12255086;19;19926;-85
2022/09/18 02:36:22;;;;;;;;;;;16.00;50.60;;;14.02;55.69;100156.47;12253094;19;19911;-85
2022/09/18 02:40:32;;;;;;;;;;;16.00;50.50;;;13.94;55.80;100149.19;12257553;19;19915;-86
2022/09/18 02:44:46;;;;;;;;;;;16.00;50.60;;;13.98;55.78;100165.53;12248435;19;20255;-85
2022/09/18 02:49:06;;;;;;;;;;;16.00;50.70;;;13.76;55.87;100130.47;12255346;19;19922;-85
2022/09/18 02:53:29;;;;;;;;;;;15.90;50.90;;;13.90;55.91;100159.09;12254929;19;19949;-86
2022/09/18 02:57:49;;;;;;;;;;;15.90;50.70;;;13.85;55.97;100149.91;12255650;19;20014;-85
2022/09/18 03:01:52;;;;;;;;;;;15.90;50.90;;;13.82;55.95;100145.72;12256104;19;20321;-86
2022/09/18 03:05:56;;;;;;;;;;;15.90;50.90;;;13.94;55.94;100167.56;12251817;19;20388;-85
2022/09/18 03:09:58;;;;;;;;;;;15.90;51.00;;;13.90;55.91;100158.25;12252797;19;21542;-85
2022/09/18 03:13:59;;;;;;;;;;;15.90;51.10;;;13.82;55.98;100158.84;12247752;19;19915;-85
2022/09/18 03:18:00;;;;;;;;;;;15.80;51.10;;;13.88;55.86;100162.78;12247707;19;19978;-85
2022/09/18 03:22:02;;;;;;;;;;;16.10;51.40;;;13.92;55.97;100177.34;12250015;19;19923;-85
2022/09/18 03:26:07;;;;;;;;;;;15.90;51.30;;;13.81;55.97;100174.72;12247560;19;19915;-85
2022/09/18 03:30:09;;;;;;;;;;;15.90;51.30;;;13.85;56.03;100182.25;12251495;19;20375;-85
2022/09/18 03:34:11;;;;;;;;;;;15.80;51.20;;;13.65;56.02;100154.91;12242999;19;20163;-85
2022/09/18 03:38:13;;;;;;;;;;;15.80;51.20;;;13.84;56.02;100195.47;12249994;19;19914;-84
2022/09/18 03:42:15;;;;;;;;;;;15.80;51.40;;;13.70;56.08;100178.19;12248382;19;19923;-85
2022/09/18 03:46:22;;;;;;;;;;;16.10;51.70;;;13.42;56.02;100137.47;12243426;19;19926;-85
2022/09/18 03:50:25;;;;;;;;;;;15.80;51.60;;;13.67;56.19;100184.50;12251228;19;20250;-85
2022/09/18 03:54:27;;;;;;;;;;;15.70;51.50;;;13.35;56.09;100137.13;12246784;19;19926;-85
2022/09/18 03:58:42;;;;;;;;;;;15.70;51.60;;;13.75;56.12;100204.06;12251064;19;19915;-85
2022/09/18 04:02:49;;;;;;;;;;;16.00;51.80;;;13.42;56.10;100159.31;12246320;19;19923;-85
2022/09/18 04:07:23;;;;;;;;;;;16.10;51.80;;;13.66;56.39;100209.06;12247903;19;19998;-85
2022/09/18 04:11:44;;;;;;;;;;;15.70;51.50;;;13.69;56.21;100216.72;12253714;19;19911;-85
2022/09/18 04:15:49;;;;;;;;;;;15.70;51.50;;;13.75;56.16;100235.56;12247919;19;19915;-85
2022/09/18 04:19:50;;;;;;;;;;;15.70;51.30;;;13.73;56.27;100226.00;12251896;19;20270;-86
2022/09/18 04:23:52;;;;;;;;;;;15.90;51.40;;;13.66;56.22;100219.56;12246237;19;20276;-85
2022/09/18 04:27:56;;;;;;;;;;;15.70;51.60;;;13.65;56.32;100224.91;12249660;19;19970;-85
2022/09/18 04:31:57;;;;;;;;;;;15.60;51.30;;;13.63;56.32;100232.91;12249047;19;19915;-85
2022/09/18 04:36:00;;;;;;;;;;;15.60;51.20;;;13.53;56.38;100224.06;12247607;19;19914;-85
2022/09/18 04:40:04;;;;;;;;;;;15.70;51.30;;;13.60;56.45;100229.69;12262195;19;19919;-85
2022/09/18 04:44:06;;;;;;;;;;;15.70;51.20;;;13.57;56.30;100228.13;12258613;19;19929;-85
2022/09/18 04:48:07;;;;;;;;;;;15.60;51.20;;;13.66;56.36;100247.56;12261967;19;19918;-85
2022/09/18 04:52:10;;;;;;;;;;;15.70;51.00;;;13.66;56.45;100258.06;12259392;19;19911;-86
2022/09/18 04:56:12;;;;;;;;;;;15.70;51.40;;;13.59;56.36;100247.22;12256396;19;19929;-85
2022/09/18 05:00:16;;;;;;;;;;;15.70;51.30;;;13.68;56.34;100267.50;12258975;19;19918;-86
2022/09/18 05:04:18;;;;;;;;;;;15.60;51.20;;;13.62;56.47;100254.03;12257816;19;19929;-85
2022/09/18 05:08:36;;;;;;;;;;;15.60;51.10;;;13.59;56.28;100265.59;12259164;19;20325;-85
2022/09/18 05:12:40;;;;;;;;;;;15.70;51.20;;;13.65;56.45;100272.97;12261019;19;19982;-85
2022/09/18 05:16:45;;;;;;;;;;;15.70;51.20;;;13.48;56.45;100249.81;12259065;19;19914;-85
2022/09/18 05:21:04;;;;;;;;;;;15.60;51.00;;;13.60;56.30;100262.00;12260229;19;19935;-85
2022/09/18 05:25:07;;;;;;;;;;;15.70;51.10;;;13.65;56.43;100280.03;12255473;19;20003;-86
2022/09/18 05:29:08;;;;;;;;;;;15.60;51.20;;;13.65;56.40;100286.09;12259724;19;19966;-85
2022/09/18 05:33:10;;;;;;;;;;;15.60;51.10;;;13.61;56.36;100279.44;12258089;19;19926;-85
2022/09/18 05:37:14;;;;;;;;;;;15.60;51.30;;;13.56;56.35;100286.81;12257872;19;19918;-85
2022/09/18 05:41:16;;;;;;;;;;;15.60;51.00;;;13.47;56.47;100277.84;12255830;19;19922;-85
2022/09/18 05:45:19;;;;;;;;;;;15.60;51.00;;;13.52;56.42;100284.50;12255568;19;19935;-85
2022/09/18 05:49:22;;;;;;;;;;;15.90;51.00;;;13.48;56.37;100287.38;12258922;19;19919;-85
2022/09/18 05:53:24;;;;;;;;;;;16.00;51.10;;;13.47;56.37;100282.22;12257352;19;20333;-86
2022/09/18 05:57:51;;;;;;;;;;;15.60;51.00;;;13.55;56.47;100313.13;12258828;19;19914;-85
2022/09/18 06:01:53;;;;;;;;;;;15.60;51.00;;;13.48;56.44;100313.59;12254834;19;19978;-85
2022/09/18 06:06:08;;;;;;;;;;;15.50;50.90;;;13.42;56.42;100311.44;12249864;19;19926;-86
2022/09/18 06:10:11;;;;;;;;;;;15.50;51.20;;;13.32;56.67;100302.56;12257849;19;19937;-85
2022/09/18 06:14:13;;;;;;;;;;;15.50;51.10;;;13.38;56.54;100320.47;12251416;19;19922;-85
2022/09/18 06:18:15;;;;;;;;;;;15.90;51.10;;;13.09;56.45;100274.53;12248936;19;19941;-85
2022/09/18 06:22:16;;;;;;;;;;;15.40;50.80;;;13.39;56.42;100332.63;12245916;19;19986;-85
2022/09/18 06:26:18;;;;;;;;;;;15.40;50.80;;;13.35;56.56;100333.81;12242796;19;20313;-84
2022/09/18 06:30:19;;;;;;;;;;;15.40;50.70;;;13.34;56.45;100339.16;12250047;19;19961;-85
2022/09/18 06:34:21;;;;;;;;;;;15.30;50.80;;;13.25;56.40;100330.97;12242147;19;19918;-85
2022/09/18 06:38:23;;;;;;;;;;;15.40;50.80;;;13.30;56.59;100330.69;12250167;19;19917;-85
2022/09/18 06:42:26;;;;;;;;;;;15.30;50.60;;;13.17;56.54;100314.13;12250166;19;19970;-85
2022/09/18 06:46:46;;;;;;;;;;;15.50;50.90;;;12.97;56.54;100268.41;12249462;19;19925;-85
2022/09/18 06:50:58;;;;;;;;;;;15.30;50.70;;;13.41;56.63;100335.97;12249341;19;19922;-85
2022/09/18 06:55:01;;;;;;;;;;;15.40;50.80;;;13.43;56.50;100328.84;12246774;19;19921;-85
2022/09/18 06:59:08;;;;;;;;;;;15.40;50.90;;;13.31;56.52;100307.91;12249231;19;19934;-86
2022/09/18 07:03:12;;;;;;;;;;;15.40;50.90;;;13.42;56.44;100323.69;12249559;19;20292;-87
2022/09/18 07:07:45;;;;;;;;;;;15.50;50.90;;;13.50;56.53;100337.94;12250955;19;19919;-85
2022/09/18 07:11:47;;;;;;;;;;;15.50;50.90;;;13.50;56.51;100337.09;12251229;19;19918;-86
2022/09/18 07:15:49;;;;;;;;;;;15.60;50.90;;;13.59;56.29;100348.72;12246461;19;19914;-87
2022/09/18 07:19:50;;;;;;;;;;;15.60;50.90;;;13.61;56.54;100342.41;12249721;19;19930;-85
2022/09/18 07:23:57;;;;;;;;;;;15.70;50.80;;;13.72;56.59;100355.56;12248581;19;19921;-86
2022/09/18 07:28:09;;;;;;;;;;;15.60;50.80;;;13.74;56.45;100347.53;12248843;19;19906;-85
2022/09/18 07:32:19;;;;;;;;;;;15.70;51.00;;;13.83;56.47;100351.28;12244836;19;19927;-86
2022/09/18 07:36:21;;;;;;;;;;;15.70;50.90;;;13.88;56.56;100341.25;12236498;19;19915;-85
2022/09/18 07:40:24;;;;;;;;;;;15.80;50.80;;;13.91;56.56;100333.19;12248651;19;19990;-86
2022/09/18 07:44:38;;;;;;;;;;;15.90;50.80;;;13.99;56.42;100329.94;12245986;19;19915;-85
2022/09/18 07:48:40;;;;;;;;;;;16.00;50.90;;;14.09;56.53;100342.25;12247489;19;19938;-85
2022/09/18 07:52:53;;;;;;;;;;;16.00;50.90;;;14.27;56.49;100347.09;12248066;19;19918;-85
2022/09/18 07:56:59;;;;;;;;;;;16.10;50.90;;;14.08;56.59;100298.59;12246252;19;20302;-85
2022/09/18 08:01:05;;;;;;;;;;;16.20;50.90;;;14.49;56.55;100338.38;12246487;19;20329;-84
2022/09/18 08:05:12;;;;;;;;;;;16.30;51.20;;;14.32;56.53;100281.91;12243964;19;20251;-86
2022/09/18 08:09:21;;;;;;;;;;;16.50;50.90;;;14.87;56.58;100348.53;12252862;19;19930;-85
2022/09/18 08:13:40;;;;;;;;;;;16.60;50.90;;;14.69;56.40;100294.78;12257396;19;19911;-86
2022/09/18 08:17:46;;;;;;;;;;;16.80;50.90;;;15.17;56.21;100347.03;12258153;19;19938;-86
2022/09/18 08:22:10;;;;;;;;;;;17.00;50.60;;;15.17;56.31;100347.03;12253335;19;19933;-86
2022/09/18 08:26:16;;;;;;;;;;;17.10;50.20;;;15.13;56.26;100341.19;12252506;19;20365;-86
2022/09/18 08:30:18;;;;;;;;;;;17.40;50.00;;;15.19;56.17;100342.50;12253598;19;20400;-86
2022/09/18 08:34:23;;;;;;;;;;;17.20;50.10;;;15.41;56.31;100357.38;12253470;19;20373;-87
2022/09/18 08:38:25;;;;;;;;;;;17.30;50.10;;;15.43;56.13;100363.34;12254544;19;19919;-86
2022/09/18 08:43:12;;;;;;;;;;;17.70;50.20;;;15.23;55.98;100320.25;12253653;19;20353;-85
2022/09/18 08:47:25;;;;;;;;;;;17.40;50.10;;;15.61;56.15;100359.22;12256466;19;19950;-86
2022/09/18 08:51:53;;;;;;;;;;;17.50;49.80;;;15.73;56.01;100354.75;12257665;19;19923;-85
2022/09/18 08:55:56;;;;;;;;;;;17.60;50.00;;;15.40;55.87;100272.34;12250713;19;19919;-86
2022/09/18 09:00:36;;;;;;;;;;;17.80;49.80;;;15.74;56.34;100305.56;12254111;19;19974;-86
2022/09/18 09:05:02;;;;;;;;;;;17.90;49.80;;;15.96;56.14;100333.56;12258677;19;20332;-85
2022/09/18 09:09:30;;;;;;;;;;;17.90;49.20;;;16.12;56.08;100365.56;12253632;19;19918;-85
2022/09/18 09:13:56;;;;;;;;;;;18.20;49.60;;;16.17;55.94;100344.09;12254779;19;20330;-85
2022/09/18 09:18:06;;;;;;;;;;;18.00;49.40;;;16.20;55.80;100354.38;12253472;19;19923;-85
2022/09/18 09:22:25;;;;;;;;;;;18.10;49.20;;;16.22;55.77;100358.53;12250149;19;19919;-85
2022/09/18 09:26:31;;;;;;;;;;;18.10;48.80;;;16.14;55.69;100350.47;12252926;19;20368;-86
2022/09/18 09:30:50;;;;;;;;;;;18.10;48.60;;;15.99;55.73;100341.25;12255191;19;20389;-85
2022/09/18 09:35:15;;;;;;;;;;;18.00;48.80;;;16.09;55.64;100352.66;12248801;19;19929;-85
2022/09/18 09:39:47;;;;;;;;;;;18.00;48.40;;;15.98;55.67;100336.91;12254801;19;19926;-85
2022/09/18 09:43:55;;;;;;;;;;;18.00;48.80;;;16.00;55.53;100342.91;12251036;19;19926;-84
2022/09/18 09:48:11;;;;;;;;;;;18.00;48.80;;;15.88;55.46;100324.53;12251063;19;19932;-85
2022/09/18 09:52:24;;;;;;;;;;;18.00;48.60;;;15.99;55.72;100336.81;12256683;19;19932;-86
2022/09/18 09:56:39;;;;;;;;;;;18.00;49.00;;;16.12;55.61;100341.84;12250863;19;19911;-85
2022/09/18 10:01:05;;;;;;;;;;;18.00;49.00;;;16.12;55.49;100331.31;12254489;19;19918;-85
2022/09/18 10:05:51;;;;;;;;;;;18.10;49.10;;;16.27;55.68;100351.09;12254494;19;19970;-85
2022/09/18 10:10:14;;;;;;;;;;;18.10;49.00;;;16.27;55.51;100350.25;12252370;19;19914;-85
2022/09/18 10:14:18;;;;;;;;;;;18.10;49.10;;;16.22;55.58;100334.00;12250446;19;19947;-86
2022/09/18 10:18:26;;;;;;;;;;;18.20;48.50;;;16.27;55.63;100345.81;12251406;19;20306;-84
2022/09/18 10:22:29;;;;;;;;;;;18.20;48.50;;;16.20;55.65;100331.50;12259127;19;19933;-86
2022/09/18 10:26:58;;;;;;;;;;;18.30;48.40;;;16.25;55.33;100349.56;12251049;19;20342;-84
2022/09/18 10:31:04;;;;;;;;;;;18.20;47.70;;;16.21;55.36;100349.00;12247610;19;19914;-84
2022/09/18 10:35:36;;;;;;;;;;;18.20;48.50;;;16.19;55.51;100347.44;12250506;19;19915;-84
2022/09/18 10:39:46;;;;;;;;;;;18.10;48.70;;;16.08;55.55;100324.66;12251962;19;19926;-84
2022/09/18 10:44:02;;;;;;;;;;;18.10;49.00;;;16.12;55.56;100326.03;12249478;19;19919;-85
2022/09/18 10:48:16;;;;;;;;;;;18.10;48.90;;;16.10;55.46;100322.72;12248681;19;19926;-84
2022/09/18 10:52:30;;;;;;;;;;;18.10;48.80;;;16.37;55.49;100325.63;12250312;19;20008;-84
2022/09/18 10:56:35;;;;;;;;;;;18.20;48.90;;;16.54;55.39;100336.50;12250434;19;19918;-84
2022/09/18 11:00:38;;;;;;;;;;;18.30;49.10;;;16.65;55.46;100315.31;12251360;19;19926;-84
2022/09/18 11:04:44;;;;;;;;;;;18.80;49.40;;;16.89;55.35;100330.81;12248534;19;20336;-84
2022/09/18 11:08:49;;;;;;;;;;;18.50;49.10;;;16.92;55.07;100303.34;12247262;19;19930;-84
2022/09/18 11:12:56;;;;;;;;;;;18.70;49.10;;;17.05;55.39;100301.28;12249804;19;19918;-84
2022/09/18 11:17:27;;;;;;;;;;;18.80;48.90;;;17.28;55.33;100306.28;12247905;19;19919;-85
2022/09/18 11:21:29;;;;;;;;;;;19.00;47.90;;;17.30;55.15;100312.28;12248253;19;19922;-84
2022/09/18 11:25:31;;;;;;;;;;;19.10;48.50;;;17.27;54.98;100323.13;12248080;19;19926;-85
2022/09/18 11:29:38;;;;;;;;;;;19.10;48.30;;;17.21;54.84;100325.34;12247789;19;20001;-86
2022/09/18 11:33:56;;;;;;;;;;;19.10;48.50;;;17.11;54.88;100316.56;12247391;19;19923;-85
2022/09/18 11:38:06;;;;;;;;;;;19.10;48.70;;;17.14;55.01;100313.66;12243777;19;20350;-85
2022/09/18 11:42:15;;;;;;;;;;;19.00;48.90;;;17.17;55.08;100281.69;12244497;19;20341;-85
2022/09/18 11:46:28;;;;;;;;;;;19.10;48.60;;;17.36;54.96;100315.22;12247507;19;19918;-85
2022/09/18 11:50:32;;;;;;;;;;;19.20;48.70;;;17.21;54.90;100345.63;12248081;19;19933;-85
2022/09/18 11:54:45;;;;;;;;;;;19.50;48.60;;;17.03;54.98;100342.78;12244664;19;19936;-88
2022/09/18 11:58:54;;;;;;;;;;;19.10;48.40;;;16.64;54.98;100305.75;12250856;19;19917;-86
2022/09/18 12:03:30;;;;;;;;;;;19.00;48.30;;;16.50;55.15;100335.97;12250478;19;20264;-86
2022/09/18 12:07:57;;;;;;;;;;;18.80;48.20;;;16.25;55.00;100321.41;12250199;19;19947;-85
2022/09/18 12:12:35;;;;;;;;;;;18.50;48.50;;;16.17;55.25;100302.78;12251762;19;19922;-85
2022/09/18 12:16:54;;;;;;;;;;;18.30;48.80;;;16.07;55.17;100289.56;12248579;19;19947;-85
2022/09/18 12:21:05;;;;;;;;;;;18.20;49.00;;;16.08;55.07;100293.03;12255044;19;19970;-86
2022/09/18 12:25:14;;;;;;;;;;;18.10;49.10;;;16.05;55.34;100282.75;12250201;19;19994;-87
2022/09/18 12:29:46;;;;;;;;;;;18.00;49.40;;;16.15;55.16;100284.47;12253806;19;20286;-85
2022/09/18 12:34:14;;;;;;;;;;;18.00;49.50;;;16.04;55.59;100250.34;12252627;19;19915;-86
2022/09/18 12:38:36;;;;;;;;;;;18.10;49.70;;;16.34;55.34;100291.63;12252301;19;20358;-85
2022/09/18 12:42:56;;;;;;;;;;;18.10;49.70;;;16.33;55.28;100279.41;12250716;19;19943;-84
2022/09/18 12:47:24;;;;;;;;;;;18.20;49.80;;;16.36;55.17;100299.38;12245894;19;19919;-85
2022/09/18 12:51:49;;;;;;;;;;;18.20;49.40;;;16.10;55.14;100275.31;12246977;19;19919;-84
2022/09/18 12:55:55;;;;;;;;;;;18.10;49.00;;;16.10;55.09;100281.41;12248023;19;19931;-84
2022/09/18 13:00:13;;;;;;;;;;;18.00;48.80;;;16.03;55.20;100287.31;12257467;19;19914;-84
2022/09/18 13:04:39;;;;;;;;;;;18.00;48.80;;;15.97;55.24;100288.69;12257170;19;19918;-84
2022/09/18 13:08:58;;;;;;;;;;;17.90;48.80;;;15.97;55.29;100272.06;12251963;19;19918;-84
2022/09/18 13:13:05;;;;;;;;;;;17.90;48.70;;;16.01;55.34;100286.59;12259550;19;20007;-85
2022/09/18 13:17:12;;;;;;;;;;;17.90;48.80;;;16.02;55.46;100265.41;12258528;19;19918;-85
2022/09/18 13:21:23;;;;;;;;;;;17.90;48.90;;;16.09;55.28;100263.09;12257959;19;19923;-85
2022/09/18 13:25:36;;;;;;;;;;;17.90;48.70;;;16.15;55.34;100262.56;12255206;19;20333;-84
2022/09/18 13:43:42;;;;;;;;;;;18.20;48.20;;;16.26;54.74;100270.38;12191757;19;20263;-88
2022/09/18 13:48:05;;;;;;;;;;;18.20;48.10;;;16.27;54.82;100258.88;12235801;19;19934;-88
2022/09/18 13:52:45;;;;;;;;;;;18.10;48.10;;;16.31;54.80;100252.38;12246328;19;19922;-87
2022/09/18 13:57:09;;;;;;;;;;;18.20;48.30;;;16.41;54.79;100267.38;12247181;19;19922;-84
2022/09/18 14:01:31;;;;;;;;;;;18.20;48.40;;;16.46;54.74;100265.19;12250432;19;19922;-84
2022/09/18 14:05:39;;;;;;;;;;;18.20;48.10;;;16.42;54.84;100259.34;12241946;19;19926;-84
2022/09/18 14:09:52;;;;;;;;;;;18.30;48.10;;;16.43;54.66;100282.09;12251747;19;19974;-84
2022/09/18 14:13:57;;;;;;;;;;;18.30;47.60;;;16.26;54.83;100272.19;12252784;19;19944;-84
2022/09/18 14:18:16;;;;;;;;;;;18.70;47.70;;;16.17;54.59;100260.63;12253505;19;19954;-84
2022/09/18 14:22:28;;;;;;;;;;;18.20;47.70;;;16.14;54.73;100263.53;12240486;19;19956;-85
2022/09/18 14:26:29;;;;;;;;;;;18.10;47.70;;;16.18;54.72;100266.75;12251943;19;19922;-84
2022/09/18 14:30:31;;;;;;;;;;;18.00;47.60;;;15.84;54.43;100216.94;12249979;19;19914;-84
2022/09/18 14:34:32;;;;;;;;;;;18.10;47.60;;;16.10;54.70;100264.78;12251824;19;20327;-85
2022/09/18 14:38:35;;;;;;;;;;;18.00;47.40;;;15.66;54.49;100198.25;12251648;19;20310;-84
2022/09/18 14:42:38;;;;;;;;;;;18.00;47.50;;;16.01;54.39;100268.19;12248510;19;19974;-84
2022/09/18 14:47:03;;;;;;;;;;;18.00;47.70;;;16.04;54.65;100271.41;12252600;19;19914;-84
2022/09/18 14:51:15;;;;;;;;;;;17.90;47.90;;;16.05;54.58;100280.97;12253738;19;19919;-84
2022/09/18 14:55:26;;;;;;;;;;;18.00;48.00;;;16.03;54.49;100279.41;12247547;19;20472;-84
2022/09/18 14:59:28;;;;;;;;;;;17.90;47.90;;;15.86;54.61;100257.16;12251360;19;19915;-84
2022/09/18 15:03:37;;;;;;;;;;;17.90;47.90;;;15.88;54.56;100268.41;12240754;19;19922;-84
2022/09/18 15:07:45;;;;;;;;;;;17.80;47.90;;;15.87;54.58;100274.63;12068247;19;3471780;-84
2022/09/18 15:11:47;;;;;;;;;;;17.80;48.10;;;15.80;54.48;100266.41;12251248;19;19917;-83
2022/09/18 15:16:00;;;;;;;;;;;17.80;48.10;;;15.80;54.59;100276.94;12250475;19;19927;-84
2022/09/18 15:20:13;;;;;;;;;;;17.70;48.10;;;15.72;54.55;100260.13;12252412;19;19918;-83
2022/09/18 15:24:16;;;;;;;;;;;17.70;48.10;;;15.66;54.60;100262.28;12248784;19;19918;-84
2022/09/18 15:28:19;;;;;;;;;;;17.70;48.00;;;15.58;54.69;100248.06;12252372;19;19926;-84
2022/09/18 15:32:44;;;;;;;;;;;17.60;48.00;;;15.62;54.69;100255.59;12250081;19;19915;-85
2022/09/18 15:36:53;;;;;;;;;;;17.50;48.10;;;15.57;54.70;100241.97;12249528;19;19932;-84
2022/09/18 15:40:54;;;;;;;;;;;17.50;48.10;;;15.48;54.57;100222.53;12252307;19;19943;-84
2022/09/18 15:44:59;;;;;;;;;;;17.80;48.40;;;15.64;54.73;100247.59;12245584;19;19923;-84
2022/09/18 15:49:21;;;;;;;;;;;17.50;48.10;;;15.63;54.58;100238.00;12254621;19;19923;-84
2022/09/18 15:53:24;;;;;;;;;;;17.50;48.20;;;15.59;54.60;100226.06;12252546;19;20011;-85
2022/09/18 15:57:26;;;;;;;;;;;17.50;48.10;;;15.62;54.48;100234.53;12249617;19;19936;-84
2022/09/18 16:01:38;;;;;;;;;;;17.50;48.10;;;15.54;54.48;100223.00;12246169;19;19915;-84
2022/09/18 16:05:50;;;;;;;;;;;17.50;48.10;;;15.56;54.71;100224.53;12247798;19;19914;-84
2022/09/18 16:09:51;;;;;;;;;;;17.50;48.10;;;15.53;54.57;100227.44;12246664;19;19927;-84
2022/09/18 16:13:55;;;;;;;;;;;17.50;48.20;;;15.53;54.63;100218.69;12245884;19;20230;-84
2022/09/18 16:18:18;;;;;;;;;;;17.50;48.20;;;15.62;54.49;100236.34;12248648;19;19926;-84
2022/09/18 16:22:19;;;;;;;;;;;17.50;48.20;;;15.51;54.58;100226.72;12249193;19;19944;-84
2022/09/18 16:26:32;;;;;;;;;;;17.50;48.20;;;15.12;54.53;100173.84;12249875;19;19915;-84
2022/09/18 16:30:33;;;;;;;;;;;17.50;48.20;;;15.44;54.43;100239.53;12250730;19;19923;-83
2022/09/18 16:34:34;;;;;;;;;;;17.40;48.10;;;15.35;54.54;100236.84;12255475;19;19939;-84
2022/09/18 16:38:36;;;;;;;;;;;17.40;48.10;;;15.02;54.50;100194.81;12262206;19;19931;-83
2022/09/18 16:42:39;;;;;;;;;;;17.30;48.10;;;15.19;54.58;100232.03;12261683;19;19918;-85
2022/09/18 16:46:42;;;;;;;;;;;17.20;48.00;;;15.20;54.46;100252.09;12260572;19;20318;-83
2022/09/18 16:50:44;;;;;;;;;;;17.20;48.00;;;15.13;54.44;100243.06;12261448;19;19931;-83
2022/09/18 16:54:45;;;;;;;;;;;17.10;48.10;;;15.10;54.57;100251.19;12252984;19;19922;-84
2022/09/18 16:58:46;;;;;;;;;;;17.10;48.10;;;14.94;54.46;100228.78;12256984;19;19907;-84
2022/09/18 17:02:49;;;;;;;;;;;17.00;48.10;;;15.01;54.67;100236.97;12254748;19;19918;-84
2022/09/18 17:06:50;;;;;;;;;;;17.00;48.20;;;15.04;54.59;100248.13;12255171;19;20344;-84
2022/09/18 17:10:52;;;;;;;;;;;17.00;48.30;;;15.01;54.57;100240.47;12254891;19;19923;-84
2022/09/18 17:14:53;;;;;;;;;;;17.00;48.30;;;14.70;54.61;100191.34;12252038;19;19919;-84
2022/09/18 17:18:55;;;;;;;;;;;17.00;48.30;;;14.86;54.63;100230.38;12255235;19;19921;-84
2022/09/18 17:22:56;;;;;;;;;;;16.90;48.30;;;14.97;54.64;100257.44;12254726;19;20312;-85
2022/09/18 17:26:58;;;;;;;;;;;16.90;48.40;;;14.78;54.71;100238.88;12255977;19;20605;-85
2022/09/18 17:31:00;;;;;;;;;;;16.90;48.40;;;14.83;54.56;100274.34;12253260;19;19922;-86
2022/09/18 17:35:02;;;;;;;;;;;16.80;48.50;;;14.83;54.75;100281.41;12246368;19;19919;-85
2022/09/18 17:39:04;;;;;;;;;;;16.80;48.70;;;14.73;54.74;100249.75;12254333;19;20264;-86
2022/09/18 17:43:05;;;;;;;;;;;16.80;48.80;;;14.72;54.72;100244.63;12246924;19;19936;-85
2022/09/18 17:47:06;;;;;;;;;;;16.70;48.90;;;14.65;54.67;100243.44;12261953;19;19923;-85
2022/09/18 17:51:11;;;;;;;;;;;16.90;49.40;;;14.59;54.66;100253.47;12257199;19;19974;-85
2022/09/18 17:55:13;;;;;;;;;;;16.70;49.00;;;14.69;54.67;100269.38;12250178;19;19922;-85
2022/09/18 17:59:15;;;;;;;;;;;16.60;49.00;;;14.54;54.74;100263.53;12255399;19;19927;-86
2022/09/18 18:03:16;;;;;;;;;;;16.60;49.00;;;14.64;54.73;100283.81;12252034;19;19917;-86
2022/09/18 18:07:17;;;;;;;;;;;16.50;49.00;;;14.57;54.78;100273.78;12251888;19;19914;-86
2022/09/18 18:11:21;;;;;;;;;;;16.50;49.00;;;14.53;54.79;100269.75;12253736;19;20284;-85
2022/09/18 18:15:22;;;;;;;;;;;16.50;49.10;;;14.51;54.92;100266.34;12246524;19;19946;-86
2022/09/18 18:19:24;;;;;;;;;;;16.50;49.20;;;14.51;54.80;100273.41;12251985;19;19933;-85
2022/09/18 18:23:26;;;;;;;;;;;16.50;49.20;;;14.48;54.86;100282.38;12247862;19;19935;-85
2022/09/18 18:27:27;;;;;;;;;;;16.40;49.20;;;14.43;54.87;100287.16;12255022;19;19921;-85
2022/09/18 18:31:30;;;;;;;;;;;16.40;49.20;;;14.41;55.01;100288.22;12252284;19;19918;-85
2022/09/18 18:35:31;;;;;;;;;;;16.40;49.20;;;14.38;54.79;100299.81;12243957;19;19927;-85
2022/09/18 18:39:33;;;;;;;;;;;16.30;49.20;;;14.23;55.04;100300.97;12249670;19;19927;-85
2022/09/18 18:43:36;;;;;;;;;;;16.30;49.20;;;14.15;54.98;100304.22;12244728;19;19918;-86
2022/09/18 18:47:38;;;;;;;;;;;16.20;49.20;;;14.04;55.01;100306.81;12244597;19;19917;-86
2022/09/18 18:51:42;;;;;;;;;;;16.10;49.20;;;13.90;54.99;100281.63;12246884;19;19955;-86
2022/09/18 18:55:45;;;;;;;;;;;16.20;49.50;;;13.98;55.14;100289.75;12239364;19;19915;-86